sensor_id;sensor_type;location;lat;lon;timestamp;P1;durP1;ratioP1;P2;durP2;ratioP2
67640;SDS011;54434;50.096;20.082;2022-08-01T00:01:02;10.50;;;8.10;;
67640;SDS011;54434;50.096;20.082;2022-08-01T00:03:37;11.60;;;8.20;;
67640;SDS011;54434;50.096;20.082;2022-08-01T00:06:13;10.50;;;8.20;;
67640;SDS011;54434;50.096;20.082;2022-08-01T00:08:49;10.80;;;7.90;;
67640;SDS011;54434;50.096;20.082;2022-08-01T00:11:26;12.20;;;8.10;;
67640;SDS011;54434;50.096;20.082;2022-08-01T00:14:02;13.30;;;7.90;;
67640;SDS011;54434;50.096;20.082;2022-08-01T00:16:38;13.20;;;8.00;;
67640;SDS011;54434;50.096;20.082;2022-08-01T00:19:14;10.20;;;8.00;;
67640;SDS011;54434;50.096;20.082;2022-08-01T00:21:50;10.40;;;7.80;;
67640;SDS011;54434;50.096;20.082;2022-08-01T00:24:26;11.00;;;7.90;;
67640;SDS011;54434;50.096;20.082;2022-08-01T00:27:02;9.70;;;7.40;;
67640;SDS011;54434;50.096;20.082;2022-08-01T00:29:38;11.90;;;8.60;;
67640;SDS011;54434;50.096;20.082;2022-08-01T00:32:35;12.10;;;8.00;;
67640;SDS011;54434;50.096;20.082;2022-08-01T00:35:11;13.30;;;7.00;;
67640;SDS011;54434;50.096;20.082;2022-08-01T00:37:47;11.90;;;8.00;;
67640;SDS011;54434;50.096;20.082;2022-08-01T00:40:24;12.70;;;8.40;;
67640;SDS011;54434;50.096;20.082;2022-08-01T00:43:01;9.30;;;7.80;;
67640;SDS011;54434;50.096;20.082;2022-08-01T00:45:37;10.20;;;7.70;;
67640;SDS011;54434;50.096;20.082;2022-08-01T00:48:14;12.60;;;8.20;;
67640;SDS011;54434;50.096;20.082;2022-08-01T00:50:50;11.30;;;8.90;;
67640;SDS011;54434;50.096;20.082;2022-08-01T00:53:26;12.20;;;8.70;;
67640;SDS011;54434;50.096;20.082;2022-08-01T00:56:25;12.60;;;8.80;;
67640;SDS011;54434;50.096;20.082;2022-08-01T00:59:01;12.40;;;8.50;;
67640;SDS011;54434;50.096;20.082;2022-08-01T01:01:40;10.30;;;7.80;;
67640;SDS011;54434;50.096;20.082;2022-08-01T01:04:19;11.90;;;8.50;;
67640;SDS011;54434;50.096;20.082;2022-08-01T01:07:04;11.40;;;9.30;;
67640;SDS011;54434;50.096;20.082;2022-08-01T01:09:49;10.80;;;8.90;;
67640;SDS011;54434;50.096;20.082;2022-08-01T01:12:34;11.30;;;9.30;;
67640;SDS011;54434;50.096;20.082;2022-08-01T01:15:33;12.50;;;9.40;;
67640;SDS011;54434;50.096;20.082;2022-08-01T01:18:20;10.80;;;8.30;;
67640;SDS011;54434;50.096;20.082;2022-08-01T01:21:06;11.40;;;8.70;;
67640;SDS011;54434;50.096;20.082;2022-08-01T01:23:57;12.10;;;9.10;;
67640;SDS011;54434;50.096;20.082;2022-08-01T01:26:56;12.80;;;8.30;;
67640;SDS011;54434;50.096;20.082;2022-08-01T01:29:41;13.30;;;9.30;;
67640;SDS011;54434;50.096;20.082;2022-08-01T01:32:37;11.60;;;8.50;;
67640;SDS011;54434;50.096;20.082;2022-08-01T01:35:22;12.10;;;9.30;;
67640;SDS011;54434;50.096;20.082;2022-08-01T01:38:04;11.90;;;9.20;;
67640;SDS011;54434;50.096;20.082;2022-08-01T01:40:43;12.70;;;9.10;;
67640;SDS011;54434;50.096;20.082;2022-08-01T01:43:22;12.30;;;8.90;;
67640;SDS011;54434;50.096;20.082;2022-08-01T01:46:06;15.00;;;9.40;;
67640;SDS011;54434;50.096;20.082;2022-08-01T01:48:46;12.20;;;8.20;;
67640;SDS011;54434;50.096;20.082;2022-08-01T01:51:25;14.10;;;9.50;;
67640;SDS011;54434;50.096;20.082;2022-08-01T01:54:04;11.60;;;8.70;;
67640;SDS011;54434;50.096;20.082;2022-08-01T01:56:43;10.60;;;8.30;;
67640;SDS011;54434;50.096;20.082;2022-08-01T01:59:26;15.70;;;9.90;;
67640;SDS011;54434;50.096;20.082;2022-08-01T02:02:05;12.60;;;9.60;;
67640;SDS011;54434;50.096;20.082;2022-08-01T02:04:46;13.20;;;9.30;;
67640;SDS011;54434;50.096;20.082;2022-08-01T02:07:25;14.60;;;9.50;;
67640;SDS011;54434;50.096;20.082;2022-08-01T02:10:03;12.50;;;9.30;;
67640;SDS011;54434;50.096;20.082;2022-08-01T02:12:44;12.80;;;9.60;;
67640;SDS011;54434;50.096;20.082;2022-08-01T02:15:24;16.10;;;9.40;;
67640;SDS011;54434;50.096;20.082;2022-08-01T02:18:03;13.00;;;9.90;;
67640;SDS011;54434;50.096;20.082;2022-08-01T02:20:40;17.90;;;9.30;;
67640;SDS011;54434;50.096;20.082;2022-08-01T02:23:16;14.00;;;10.00;;
67640;SDS011;54434;50.096;20.082;2022-08-01T02:25:56;15.80;;;10.50;;
67640;SDS011;54434;50.096;20.082;2022-08-01T02:28:47;13.70;;;10.60;;
67640;SDS011;54434;50.096;20.082;2022-08-01T02:31:29;15.20;;;10.60;;
67640;SDS011;54434;50.096;20.082;2022-08-01T02:34:15;14.20;;;10.70;;
67640;SDS011;54434;50.096;20.082;2022-08-01T02:36:55;13.90;;;10.20;;
67640;SDS011;54434;50.096;20.082;2022-08-01T02:39:33;13.20;;;10.10;;
67640;SDS011;54434;50.096;20.082;2022-08-01T02:42:13;14.30;;;10.50;;
67640;SDS011;54434;50.096;20.082;2022-08-01T02:44:53;15.00;;;10.70;;
67640;SDS011;54434;50.096;20.082;2022-08-01T02:47:30;14.20;;;10.90;;
67640;SDS011;54434;50.096;20.082;2022-08-01T02:50:12;12.60;;;9.40;;
67640;SDS011;54434;50.096;20.082;2022-08-01T02:52:52;15.00;;;11.00;;
67640;SDS011;54434;50.096;20.082;2022-08-01T02:55:30;15.80;;;11.10;;
67640;SDS011;54434;50.096;20.082;2022-08-01T02:58:09;14.00;;;10.70;;
67640;SDS011;54434;50.096;20.082;2022-08-01T03:00:49;14.50;;;10.80;;
67640;SDS011;54434;50.096;20.082;2022-08-01T03:03:26;17.10;;;11.30;;
67640;SDS011;54434;50.096;20.082;2022-08-01T03:06:03;17.10;;;11.20;;
67640;SDS011;54434;50.096;20.082;2022-08-01T03:08:40;13.80;;;9.50;;
67640;SDS011;54434;50.096;20.082;2022-08-01T03:11:19;15.70;;;10.20;;
67640;SDS011;54434;50.096;20.082;2022-08-01T03:14:00;14.20;;;10.70;;
67640;SDS011;54434;50.096;20.082;2022-08-01T03:16:41;16.40;;;11.20;;
67640;SDS011;54434;50.096;20.082;2022-08-01T03:19:20;13.60;;;11.20;;
67640;SDS011;54434;50.096;20.082;2022-08-01T03:22:01;16.00;;;11.90;;
67640;SDS011;54434;50.096;20.082;2022-08-01T03:24:41;15.70;;;10.70;;
67640;SDS011;54434;50.096;20.082;2022-08-01T03:27:24;14.80;;;10.70;;
67640;SDS011;54434;50.096;20.082;2022-08-01T03:30:04;17.40;;;11.30;;
67640;SDS011;54434;50.096;20.082;2022-08-01T03:32:43;16.00;;;11.70;;
67640;SDS011;54434;50.096;20.082;2022-08-01T03:35:23;15.80;;;11.10;;
67640;SDS011;54434;50.096;20.082;2022-08-01T03:38:09;15.20;;;11.00;;
67640;SDS011;54434;50.096;20.082;2022-08-01T03:43:37;18.50;;;11.20;;
67640;SDS011;54434;50.096;20.082;2022-08-01T03:46:19;17.00;;;12.10;;
67640;SDS011;54434;50.096;20.082;2022-08-01T03:49:03;18.30;;;11.30;;
67640;SDS011;54434;50.096;20.082;2022-08-01T03:51:45;13.50;;;10.80;;
67640;SDS011;54434;50.096;20.082;2022-08-01T03:54:27;16.10;;;11.40;;
67640;SDS011;54434;50.096;20.082;2022-08-01T03:57:06;15.00;;;9.80;;
67640;SDS011;54434;50.096;20.082;2022-08-01T04:00:05;13.90;;;10.80;;
67640;SDS011;54434;50.096;20.082;2022-08-01T04:02:46;14.90;;;10.30;;
67640;SDS011;54434;50.096;20.082;2022-08-01T04:05:23;16.40;;;10.90;;
67640;SDS011;54434;50.096;20.082;2022-08-01T04:07:59;14.70;;;10.20;;
67640;SDS011;54434;50.096;20.082;2022-08-01T04:10:35;18.20;;;11.10;;
67640;SDS011;54434;50.096;20.082;2022-08-01T04:13:12;16.50;;;11.60;;
67640;SDS011;54434;50.096;20.082;2022-08-01T04:15:48;18.70;;;13.20;;
67640;SDS011;54434;50.096;20.082;2022-08-01T04:18:24;16.60;;;12.10;;
67640;SDS011;54434;50.096;20.082;2022-08-01T04:21:00;14.10;;;10.40;;
67640;SDS011;54434;50.096;20.082;2022-08-01T04:23:36;17.10;;;11.50;;
67640;SDS011;54434;50.096;20.082;2022-08-01T04:26:16;16.10;;;11.60;;
67640;SDS011;54434;50.096;20.082;2022-08-01T04:28:55;17.30;;;11.50;;
67640;SDS011;54434;50.096;20.082;2022-08-01T04:31:32;20.10;;;12.00;;
67640;SDS011;54434;50.096;20.082;2022-08-01T04:34:11;15.30;;;11.80;;
67640;SDS011;54434;50.096;20.082;2022-08-01T04:36:52;15.80;;;11.50;;
67640;SDS011;54434;50.096;20.082;2022-08-01T04:39:32;13.40;;;10.80;;
67640;SDS011;54434;50.096;20.082;2022-08-01T04:42:23;42.50;;;27.10;;
67640;SDS011;54434;50.096;20.082;2022-08-01T04:45:10;16.70;;;11.30;;
67640;SDS011;54434;50.096;20.082;2022-08-01T04:47:46;14.70;;;10.90;;
67640;SDS011;54434;50.096;20.082;2022-08-01T04:50:23;16.50;;;11.10;;
67640;SDS011;54434;50.096;20.082;2022-08-01T04:52:59;13.20;;;10.10;;
67640;SDS011;54434;50.096;20.082;2022-08-01T04:55:36;14.90;;;11.10;;
67640;SDS011;54434;50.096;20.082;2022-08-01T04:58:13;15.80;;;11.70;;
67640;SDS011;54434;50.096;20.082;2022-08-01T05:00:51;16.20;;;11.20;;
67640;SDS011;54434;50.096;20.082;2022-08-01T05:03:26;15.00;;;10.60;;
67640;SDS011;54434;50.096;20.082;2022-08-01T05:06:06;15.80;;;10.20;;
67640;SDS011;54434;50.096;20.082;2022-08-01T05:08:42;13.70;;;10.40;;
67640;SDS011;54434;50.096;20.082;2022-08-01T05:11:18;15.10;;;10.80;;
67640;SDS011;54434;50.096;20.082;2022-08-01T05:13:55;15.50;;;9.60;;
67640;SDS011;54434;50.096;20.082;2022-08-01T05:16:31;14.20;;;10.30;;
67640;SDS011;54434;50.096;20.082;2022-08-01T05:19:06;15.40;;;9.80;;
67640;SDS011;54434;50.096;20.082;2022-08-01T05:21:42;13.10;;;9.10;;
67640;SDS011;54434;50.096;20.082;2022-08-01T05:24:18;14.10;;;9.10;;
67640;SDS011;54434;50.096;20.082;2022-08-01T05:26:56;12.10;;;9.00;;
67640;SDS011;54434;50.096;20.082;2022-08-01T05:29:36;13.60;;;8.70;;
67640;SDS011;54434;50.096;20.082;2022-08-01T05:32:16;11.80;;;8.50;;
67640;SDS011;54434;50.096;20.082;2022-08-01T05:34:53;12.60;;;9.00;;
67640;SDS011;54434;50.096;20.082;2022-08-01T05:37:29;13.60;;;8.90;;
67640;SDS011;54434;50.096;20.082;2022-08-01T05:40:07;11.80;;;8.30;;
67640;SDS011;54434;50.096;20.082;2022-08-01T05:42:44;12.80;;;8.60;;
67640;SDS011;54434;50.096;20.082;2022-08-01T05:45:20;12.80;;;8.30;;
67640;SDS011;54434;50.096;20.082;2022-08-01T05:47:56;11.90;;;8.10;;
67640;SDS011;54434;50.096;20.082;2022-08-01T05:50:33;11.40;;;8.50;;
67640;SDS011;54434;50.096;20.082;2022-08-01T05:53:09;14.90;;;8.90;;
67640;SDS011;54434;50.096;20.082;2022-08-01T05:55:45;10.40;;;8.10;;
67640;SDS011;54434;50.096;20.082;2022-08-01T05:58:22;12.30;;;8.10;;
67640;SDS011;54434;50.096;20.082;2022-08-01T06:00:57;10.20;;;8.00;;
67640;SDS011;54434;50.096;20.082;2022-08-01T06:03:34;10.70;;;7.80;;
67640;SDS011;54434;50.096;20.082;2022-08-01T06:06:10;10.40;;;7.80;;
67640;SDS011;54434;50.096;20.082;2022-08-01T06:08:48;13.40;;;7.60;;
67640;SDS011;54434;50.096;20.082;2022-08-01T06:11:24;12.50;;;8.10;;
67640;SDS011;54434;50.096;20.082;2022-08-01T06:14:00;12.00;;;7.80;;
67640;SDS011;54434;50.096;20.082;2022-08-01T06:16:36;11.40;;;8.00;;
67640;SDS011;54434;50.096;20.082;2022-08-01T06:19:12;11.50;;;7.90;;
67640;SDS011;54434;50.096;20.082;2022-08-01T06:21:48;10.70;;;7.10;;
67640;SDS011;54434;50.096;20.082;2022-08-01T06:24:24;13.80;;;7.60;;
67640;SDS011;54434;50.096;20.082;2022-08-01T06:27:01;12.70;;;6.70;;
67640;SDS011;54434;50.096;20.082;2022-08-01T06:29:54;12.50;;;6.70;;
67640;SDS011;54434;50.096;20.082;2022-08-01T06:32:30;9.70;;;6.40;;
67640;SDS011;54434;50.096;20.082;2022-08-01T06:35:07;13.70;;;5.90;;
67640;SDS011;54434;50.096;20.082;2022-08-01T06:37:43;8.50;;;6.00;;
67640;SDS011;54434;50.096;20.082;2022-08-01T06:40:19;9.70;;;6.00;;
67640;SDS011;54434;50.096;20.082;2022-08-01T06:42:55;10.50;;;6.00;;
67640;SDS011;54434;50.096;20.082;2022-08-01T06:45:31;8.40;;;5.80;;
67640;SDS011;54434;50.096;20.082;2022-08-01T06:48:09;12.10;;;6.20;;
67640;SDS011;54434;50.096;20.082;2022-08-01T06:50:45;9.10;;;5.70;;
67640;SDS011;54434;50.096;20.082;2022-08-01T06:53:21;9.90;;;5.70;;
67640;SDS011;54434;50.096;20.082;2022-08-01T06:55:57;9.10;;;5.30;;
67640;SDS011;54434;50.096;20.082;2022-08-01T06:58:33;7.40;;;5.00;;
67640;SDS011;54434;50.096;20.082;2022-08-01T07:01:09;9.00;;;5.00;;
67640;SDS011;54434;50.096;20.082;2022-08-01T07:03:45;9.10;;;4.70;;
67640;SDS011;54434;50.096;20.082;2022-08-01T07:06:27;7.60;;;4.60;;
67640;SDS011;54434;50.096;20.082;2022-08-01T07:09:03;9.60;;;4.60;;
67640;SDS011;54434;50.096;20.082;2022-08-01T07:11:46;8.20;;;4.60;;
67640;SDS011;54434;50.096;20.082;2022-08-01T07:14:24;6.30;;;4.10;;
67640;SDS011;54434;50.096;20.082;2022-08-01T07:17:00;7.30;;;3.90;;
67640;SDS011;54434;50.096;20.082;2022-08-01T07:19:36;8.00;;;4.10;;
67640;SDS011;54434;50.096;20.082;2022-08-01T07:22:12;12.60;;;4.00;;
67640;SDS011;54434;50.096;20.082;2022-08-01T07:24:55;11.60;;;3.90;;
67640;SDS011;54434;50.096;20.082;2022-08-01T07:27:31;7.60;;;3.60;;
67640;SDS011;54434;50.096;20.082;2022-08-01T07:30:11;7.90;;;3.90;;
67640;SDS011;54434;50.096;20.082;2022-08-01T07:32:47;12.50;;;4.10;;
67640;SDS011;54434;50.096;20.082;2022-08-01T07:35:24;7.90;;;3.40;;
67640;SDS011;54434;50.096;20.082;2022-08-01T07:38:00;4.90;;;3.30;;
67640;SDS011;54434;50.096;20.082;2022-08-01T07:40:36;5.80;;;3.40;;
67640;SDS011;54434;50.096;20.082;2022-08-01T07:43:12;7.80;;;3.50;;
67640;SDS011;54434;50.096;20.082;2022-08-01T07:45:47;6.10;;;3.20;;
67640;SDS011;54434;50.096;20.082;2022-08-01T07:48:23;5.30;;;3.50;;
67640;SDS011;54434;50.096;20.082;2022-08-01T07:51:00;5.50;;;3.30;;
67640;SDS011;54434;50.096;20.082;2022-08-01T07:53:36;8.50;;;3.20;;
67640;SDS011;54434;50.096;20.082;2022-08-01T07:56:12;8.10;;;3.30;;
67640;SDS011;54434;50.096;20.082;2022-08-01T07:58:48;8.30;;;3.00;;
67640;SDS011;54434;50.096;20.082;2022-08-01T08:01:24;5.10;;;2.90;;
67640;SDS011;54434;50.096;20.082;2022-08-01T08:04:01;5.70;;;3.00;;
67640;SDS011;54434;50.096;20.082;2022-08-01T08:06:37;5.20;;;3.20;;
67640;SDS011;54434;50.096;20.082;2022-08-01T08:09:14;4.80;;;2.80;;
67640;SDS011;54434;50.096;20.082;2022-08-01T08:11:51;7.40;;;2.70;;
67640;SDS011;54434;50.096;20.082;2022-08-01T08:14:27;7.50;;;2.90;;
67640;SDS011;54434;50.096;20.082;2022-08-01T08:17:05;7.60;;;2.90;;
67640;SDS011;54434;50.096;20.082;2022-08-01T08:19:41;5.50;;;2.60;;
67640;SDS011;54434;50.096;20.082;2022-08-01T08:22:17;4.80;;;2.50;;
67640;SDS011;54434;50.096;20.082;2022-08-01T08:24:53;4.60;;;2.50;;
67640;SDS011;54434;50.096;20.082;2022-08-01T08:27:32;6.70;;;2.80;;
67640;SDS011;54434;50.096;20.082;2022-08-01T08:30:11;7.60;;;2.60;;
67640;SDS011;54434;50.096;20.082;2022-08-01T08:32:47;5.00;;;2.30;;
67640;SDS011;54434;50.096;20.082;2022-08-01T08:35:24;5.50;;;2.40;;
67640;SDS011;54434;50.096;20.082;2022-08-01T08:38:19;12.40;;;3.00;;
67640;SDS011;54434;50.096;20.082;2022-08-01T08:41:02;4.70;;;2.50;;
67640;SDS011;54434;50.096;20.082;2022-08-01T08:43:39;3.80;;;2.30;;
67640;SDS011;54434;50.096;20.082;2022-08-01T08:46:15;5.10;;;2.50;;
67640;SDS011;54434;50.096;20.082;2022-08-01T08:49:02;7.40;;;2.70;;
67640;SDS011;54434;50.096;20.082;2022-08-01T08:51:41;5.70;;;2.30;;
67640;SDS011;54434;50.096;20.082;2022-08-01T08:54:20;7.20;;;3.10;;
67640;SDS011;54434;50.096;20.082;2022-08-01T08:57:03;4.80;;;2.30;;
67640;SDS011;54434;50.096;20.082;2022-08-01T08:59:40;5.10;;;2.30;;
67640;SDS011;54434;50.096;20.082;2022-08-01T09:02:16;4.10;;;2.30;;
67640;SDS011;54434;50.096;20.082;2022-08-01T09:04:52;4.90;;;2.20;;
67640;SDS011;54434;50.096;20.082;2022-08-01T09:07:29;6.50;;;2.10;;
67640;SDS011;54434;50.096;20.082;2022-08-01T09:10:07;7.40;;;2.20;;
67640;SDS011;54434;50.096;20.082;2022-08-01T09:13:03;5.80;;;2.30;;
67640;SDS011;54434;50.096;20.082;2022-08-01T09:15:47;8.90;;;2.30;;
67640;SDS011;54434;50.096;20.082;2022-08-01T09:18:35;4.70;;;2.10;;
67640;SDS011;54434;50.096;20.082;2022-08-01T09:21:17;6.10;;;2.40;;
67640;SDS011;54434;50.096;20.082;2022-08-01T09:23:57;4.50;;;2.30;;
67640;SDS011;54434;50.096;20.082;2022-08-01T09:26:37;5.30;;;2.60;;
67640;SDS011;54434;50.096;20.082;2022-08-01T09:29:22;7.80;;;3.00;;
67640;SDS011;54434;50.096;20.082;2022-08-01T09:32:10;7.40;;;3.10;;
67640;SDS011;54434;50.096;20.082;2022-08-01T09:34:48;6.50;;;2.70;;
67640;SDS011;54434;50.096;20.082;2022-08-01T09:37:32;6.70;;;2.70;;
67640;SDS011;54434;50.096;20.082;2022-08-01T09:40:12;3.90;;;2.50;;
67640;SDS011;54434;50.096;20.082;2022-08-01T09:42:48;4.70;;;2.40;;
67640;SDS011;54434;50.096;20.082;2022-08-01T09:45:37;6.60;;;2.80;;
67640;SDS011;54434;50.096;20.082;2022-08-01T09:48:17;4.50;;;2.30;;
67640;SDS011;54434;50.096;20.082;2022-08-01T09:50:55;5.70;;;2.60;;
67640;SDS011;54434;50.096;20.082;2022-08-01T09:53:46;6.50;;;2.50;;
67640;SDS011;54434;50.096;20.082;2022-08-01T09:56:26;5.30;;;2.70;;
67640;SDS011;54434;50.096;20.082;2022-08-01T09:59:12;6.40;;;2.60;;
67640;SDS011;54434;50.096;20.082;2022-08-01T10:01:51;5.00;;;2.60;;
67640;SDS011;54434;50.096;20.082;2022-08-01T10:04:28;5.10;;;2.60;;
67640;SDS011;54434;50.096;20.082;2022-08-01T10:07:09;7.70;;;2.60;;
67640;SDS011;54434;50.096;20.082;2022-08-01T10:09:49;6.60;;;2.50;;
67640;SDS011;54434;50.096;20.082;2022-08-01T10:12:27;6.50;;;3.00;;
67640;SDS011;54434;50.096;20.082;2022-08-01T10:15:09;5.80;;;2.50;;
67640;SDS011;54434;50.096;20.082;2022-08-01T10:17:54;6.00;;;2.60;;
67640;SDS011;54434;50.096;20.082;2022-08-01T10:20:33;5.40;;;2.80;;
67640;SDS011;54434;50.096;20.082;2022-08-01T10:23:10;6.20;;;2.60;;
67640;SDS011;54434;50.096;20.082;2022-08-01T10:25:49;5.40;;;2.40;;
67640;SDS011;54434;50.096;20.082;2022-08-01T10:28:31;6.30;;;2.60;;
67640;SDS011;54434;50.096;20.082;2022-08-01T10:31:12;5.60;;;2.50;;
67640;SDS011;54434;50.096;20.082;2022-08-01T10:33:51;7.60;;;2.60;;
67640;SDS011;54434;50.096;20.082;2022-08-01T10:36:30;4.60;;;2.50;;
67640;SDS011;54434;50.096;20.082;2022-08-01T10:39:14;7.20;;;2.50;;
67640;SDS011;54434;50.096;20.082;2022-08-01T10:41:52;4.40;;;2.40;;
67640;SDS011;54434;50.096;20.082;2022-08-01T10:44:32;5.10;;;2.60;;
67640;SDS011;54434;50.096;20.082;2022-08-01T10:47:13;4.20;;;2.30;;
67640;SDS011;54434;50.096;20.082;2022-08-01T10:50:04;6.20;;;2.50;;
67640;SDS011;54434;50.096;20.082;2022-08-01T10:53:15;4.60;;;2.30;;
67640;SDS011;54434;50.096;20.082;2022-08-01T10:56:05;7.40;;;2.20;;
67640;SDS011;54434;50.096;20.082;2022-08-01T10:58:49;7.70;;;2.20;;
67640;SDS011;54434;50.096;20.082;2022-08-01T11:01:39;6.10;;;2.30;;
67640;SDS011;54434;50.096;20.082;2022-08-01T11:04:18;5.60;;;2.50;;
67640;SDS011;54434;50.096;20.082;2022-08-01T11:07:04;5.30;;;2.30;;
67640;SDS011;54434;50.096;20.082;2022-08-01T11:09:44;9.30;;;2.60;;
67640;SDS011;54434;50.096;20.082;2022-08-01T11:12:39;5.70;;;2.50;;
67640;SDS011;54434;50.096;20.082;2022-08-01T11:15:35;5.30;;;2.30;;
67640;SDS011;54434;50.096;20.082;2022-08-01T11:18:33;4.10;;;2.30;;
67640;SDS011;54434;50.096;20.082;2022-08-01T11:21:10;5.40;;;2.20;;
67640;SDS011;54434;50.096;20.082;2022-08-01T11:24:07;4.60;;;2.20;;
67640;SDS011;54434;50.096;20.082;2022-08-01T11:27:17;6.40;;;2.50;;
67640;SDS011;54434;50.096;20.082;2022-08-01T11:30:26;5.30;;;2.30;;
67640;SDS011;54434;50.096;20.082;2022-08-01T11:33:02;5.80;;;2.20;;
67640;SDS011;54434;50.096;20.082;2022-08-01T11:36:19;4.60;;;2.20;;
67640;SDS011;54434;50.096;20.082;2022-08-01T11:39:19;5.70;;;2.40;;
67640;SDS011;54434;50.096;20.082;2022-08-01T11:41:56;5.50;;;2.60;;
67640;SDS011;54434;50.096;20.082;2022-08-01T11:44:54;4.60;;;2.70;;
67640;SDS011;54434;50.096;20.082;2022-08-01T11:47:50;5.10;;;2.60;;
67640;SDS011;54434;50.096;20.082;2022-08-01T11:50:36;5.30;;;2.30;;
67640;SDS011;54434;50.096;20.082;2022-08-01T11:53:13;5.10;;;2.20;;
67640;SDS011;54434;50.096;20.082;2022-08-01T11:55:55;3.50;;;2.30;;
67640;SDS011;54434;50.096;20.082;2022-08-01T11:58:32;6.20;;;2.10;;
67640;SDS011;54434;50.096;20.082;2022-08-01T12:01:13;5.20;;;2.10;;
67640;SDS011;54434;50.096;20.082;2022-08-01T12:03:57;4.90;;;2.20;;
67640;SDS011;54434;50.096;20.082;2022-08-01T12:06:33;8.40;;;2.40;;
67640;SDS011;54434;50.096;20.082;2022-08-01T12:09:23;8.20;;;2.60;;
67640;SDS011;54434;50.096;20.082;2022-08-01T12:11:59;3.90;;;1.90;;
67640;SDS011;54434;50.096;20.082;2022-08-01T12:14:35;4.00;;;2.50;;
67640;SDS011;54434;50.096;20.082;2022-08-01T12:17:12;5.00;;;2.60;;
67640;SDS011;54434;50.096;20.082;2022-08-01T12:19:51;4.30;;;2.30;;
67640;SDS011;54434;50.096;20.082;2022-08-01T12:22:27;5.10;;;2.30;;
67640;SDS011;54434;50.096;20.082;2022-08-01T12:25:10;5.30;;;2.30;;
67640;SDS011;54434;50.096;20.082;2022-08-01T12:27:49;4.00;;;2.30;;
67640;SDS011;54434;50.096;20.082;2022-08-01T12:30:29;6.60;;;2.30;;
67640;SDS011;54434;50.096;20.082;2022-08-01T12:33:11;5.70;;;2.30;;
67640;SDS011;54434;50.096;20.082;2022-08-01T12:35:53;5.00;;;2.30;;
67640;SDS011;54434;50.096;20.082;2022-08-01T12:38:31;6.00;;;2.50;;
67640;SDS011;54434;50.096;20.082;2022-08-01T12:41:11;7.80;;;2.30;;
67640;SDS011;54434;50.096;20.082;2022-08-01T12:43:48;5.80;;;2.30;;
67640;SDS011;54434;50.096;20.082;2022-08-01T12:46:24;4.40;;;2.30;;
67640;SDS011;54434;50.096;20.082;2022-08-01T12:49:00;6.80;;;2.50;;
67640;SDS011;54434;50.096;20.082;2022-08-01T12:51:36;4.90;;;2.40;;
67640;SDS011;54434;50.096;20.082;2022-08-01T12:54:12;5.30;;;2.40;;
67640;SDS011;54434;50.096;20.082;2022-08-01T12:56:48;4.20;;;2.20;;
67640;SDS011;54434;50.096;20.082;2022-08-01T12:59:28;4.10;;;2.40;;
67640;SDS011;54434;50.096;20.082;2022-08-01T13:02:12;5.50;;;2.50;;
67640;SDS011;54434;50.096;20.082;2022-08-01T13:04:56;3.60;;;2.30;;
67640;SDS011;54434;50.096;20.082;2022-08-01T13:07:44;6.70;;;2.90;;
67640;SDS011;54434;50.096;20.082;2022-08-01T13:10:31;4.00;;;2.50;;
67640;SDS011;54434;50.096;20.082;2022-08-01T13:13:08;5.30;;;2.40;;
67640;SDS011;54434;50.096;20.082;2022-08-01T13:16:08;5.30;;;2.30;;
67640;SDS011;54434;50.096;20.082;2022-08-01T13:19:02;6.40;;;2.40;;
67640;SDS011;54434;50.096;20.082;2022-08-01T13:21:39;5.00;;;2.60;;
67640;SDS011;54434;50.096;20.082;2022-08-01T13:24:30;4.90;;;2.60;;
67640;SDS011;54434;50.096;20.082;2022-08-01T13:27:06;3.70;;;2.40;;
67640;SDS011;54434;50.096;20.082;2022-08-01T13:29:53;8.90;;;2.70;;
67640;SDS011;54434;50.096;20.082;2022-08-01T13:32:44;5.10;;;2.30;;
67640;SDS011;54434;50.096;20.082;2022-08-01T13:35:32;5.40;;;2.30;;
67640;SDS011;54434;50.096;20.082;2022-08-01T13:38:08;7.10;;;2.60;;
67640;SDS011;54434;50.096;20.082;2022-08-01T13:40:44;5.00;;;2.40;;
67640;SDS011;54434;50.096;20.082;2022-08-01T13:43:20;8.40;;;2.50;;
67640;SDS011;54434;50.096;20.082;2022-08-01T13:45:56;6.50;;;2.50;;
67640;SDS011;54434;50.096;20.082;2022-08-01T13:48:34;6.20;;;2.60;;
67640;SDS011;54434;50.096;20.082;2022-08-01T13:51:11;3.80;;;2.40;;
67640;SDS011;54434;50.096;20.082;2022-08-01T13:53:55;3.60;;;2.50;;
67640;SDS011;54434;50.096;20.082;2022-08-01T13:56:31;6.00;;;2.50;;
67640;SDS011;54434;50.096;20.082;2022-08-01T13:59:07;7.00;;;2.70;;
67640;SDS011;54434;50.096;20.082;2022-08-01T14:01:43;4.70;;;2.60;;
67640;SDS011;54434;50.096;20.082;2022-08-01T14:04:20;7.50;;;2.60;;
67640;SDS011;54434;50.096;20.082;2022-08-01T14:06:56;6.60;;;3.10;;
67640;SDS011;54434;50.096;20.082;2022-08-01T14:09:41;6.40;;;2.70;;
67640;SDS011;54434;50.096;20.082;2022-08-01T14:12:37;10.70;;;2.80;;
67640;SDS011;54434;50.096;20.082;2022-08-01T14:15:18;6.00;;;2.80;;
67640;SDS011;54434;50.096;20.082;2022-08-01T14:18:12;5.50;;;2.80;;
67640;SDS011;54434;50.096;20.082;2022-08-01T14:20:48;8.60;;;2.80;;
67640;SDS011;54434;50.096;20.082;2022-08-01T14:23:28;6.50;;;3.20;;
67640;SDS011;54434;50.096;20.082;2022-08-01T14:26:04;7.50;;;2.70;;
67640;SDS011;54434;50.096;20.082;2022-08-01T14:28:44;6.20;;;3.00;;
67640;SDS011;54434;50.096;20.082;2022-08-01T14:31:20;7.30;;;2.60;;
67640;SDS011;54434;50.096;20.082;2022-08-01T14:33:56;5.90;;;2.60;;
67640;SDS011;54434;50.096;20.082;2022-08-01T14:36:32;5.10;;;2.90;;
67640;SDS011;54434;50.096;20.082;2022-08-01T14:39:11;5.50;;;2.90;;
67640;SDS011;54434;50.096;20.082;2022-08-01T14:41:47;9.30;;;3.00;;
67640;SDS011;54434;50.096;20.082;2022-08-01T14:44:23;6.30;;;3.00;;
67640;SDS011;54434;50.096;20.082;2022-08-01T14:47:07;7.20;;;3.10;;
67640;SDS011;54434;50.096;20.082;2022-08-01T14:49:53;4.10;;;2.70;;
67640;SDS011;54434;50.096;20.082;2022-08-01T14:52:29;10.60;;;2.80;;
67640;SDS011;54434;50.096;20.082;2022-08-01T14:55:09;9.40;;;2.90;;
67640;SDS011;54434;50.096;20.082;2022-08-01T14:57:46;5.30;;;2.90;;
67640;SDS011;54434;50.096;20.082;2022-08-01T15:00:22;4.80;;;2.30;;
67640;SDS011;54434;50.096;20.082;2022-08-01T15:02:58;6.10;;;3.10;;
67640;SDS011;54434;50.096;20.082;2022-08-01T15:05:35;5.50;;;3.00;;
67640;SDS011;54434;50.096;20.082;2022-08-01T15:08:11;9.00;;;2.80;;
67640;SDS011;54434;50.096;20.082;2022-08-01T15:10:47;7.00;;;3.10;;
67640;SDS011;54434;50.096;20.082;2022-08-01T15:13:24;5.30;;;3.10;;
67640;SDS011;54434;50.096;20.082;2022-08-01T15:16:00;8.00;;;3.10;;
67640;SDS011;54434;50.096;20.082;2022-08-01T15:18:36;6.90;;;3.10;;
67640;SDS011;54434;50.096;20.082;2022-08-01T15:21:14;8.00;;;3.30;;
67640;SDS011;54434;50.096;20.082;2022-08-01T15:24:11;5.20;;;2.90;;
67640;SDS011;54434;50.096;20.082;2022-08-01T15:26:49;6.10;;;3.00;;
67640;SDS011;54434;50.096;20.082;2022-08-01T15:29:25;4.90;;;3.20;;
67640;SDS011;54434;50.096;20.082;2022-08-01T15:32:01;4.60;;;3.10;;
67640;SDS011;54434;50.096;20.082;2022-08-01T15:34:40;6.80;;;3.00;;
67640;SDS011;54434;50.096;20.082;2022-08-01T15:37:16;6.40;;;3.40;;
67640;SDS011;54434;50.096;20.082;2022-08-01T15:39:52;5.20;;;3.00;;
67640;SDS011;54434;50.096;20.082;2022-08-01T15:42:29;6.20;;;3.40;;
67640;SDS011;54434;50.096;20.082;2022-08-01T15:45:06;5.70;;;3.60;;